sensor_id;sensor_type;location;lat;lon;timestamp;P1;durP1;ratioP1;P2;durP2;ratioP2
58260;SDS011;44058;52.898;6.502;2023-03-01T00:01:50;15.38;;;13.15;;
58260;SDS011;44058;52.898;6.502;2023-03-01T00:04:16;13.82;;;11.77;;
58260;SDS011;44058;52.898;6.502;2023-03-01T00:06:43;14.43;;;12.02;;
58260;SDS011;44058;52.898;6.502;2023-03-01T00:09:13;13.77;;;11.40;;
58260;SDS011;44058;52.898;6.502;2023-03-01T00:11:39;15.93;;;11.77;;
58260;SDS011;44058;52.898;6.502;2023-03-01T00:14:06;11.57;;;10.38;;
58260;SDS011;44058;52.898;6.502;2023-03-01T00:16:36;12.30;;;10.20;;
58260;SDS011;44058;52.898;6.502;2023-03-01T00:19:03;10.77;;;9.63;;
58260;SDS011;44058;52.898;6.502;2023-03-01T00:21:30;11.53;;;10.33;;
58260;SDS011;44058;52.898;6.502;2023-03-01T00:23:56;12.50;;;10.60;;
58260;SDS011;44058;52.898;6.502;2023-03-01T00:26:24;11.00;;;9.87;;
58260;SDS011;44058;52.898;6.502;2023-03-01T00:28:50;11.70;;;10.05;;
58260;SDS011;44058;52.898;6.502;2023-03-01T00:31:19;10.83;;;9.70;;
58260;SDS011;44058;52.898;6.502;2023-03-01T00:33:45;11.02;;;9.23;;
58260;SDS011;44058;52.898;6.502;2023-03-01T00:36:12;15.77;;;10.10;;
58260;SDS011;44058;52.898;6.502;2023-03-01T00:38:40;11.13;;;9.73;;
58260;SDS011;44058;52.898;6.502;2023-03-01T00:41:07;17.53;;;8.97;;
58260;SDS011;44058;52.898;6.502;2023-03-01T00:43:35;17.42;;;10.43;;
58260;SDS011;44058;52.898;6.502;2023-03-01T00:46:02;35.63;;;14.10;;
58260;SDS011;44058;52.898;6.502;2023-03-01T00:48:40;66.80;;;13.97;;
58260;SDS011;44058;52.898;6.502;2023-03-01T00:51:13;29.13;;;12.50;;
58260;SDS011;44058;52.898;6.502;2023-03-01T00:53:39;16.17;;;12.50;;
58260;SDS011;44058;52.898;6.502;2023-03-01T00:56:06;14.50;;;11.57;;
58260;SDS011;44058;52.898;6.502;2023-03-01T00:58:33;14.20;;;11.73;;
58260;SDS011;44058;52.898;6.502;2023-03-01T01:01:09;15.10;;;12.33;;
58260;SDS011;44058;52.898;6.502;2023-03-01T01:03:47;20.00;;;12.23;;
58260;SDS011;44058;52.898;6.502;2023-03-01T01:06:14;19.00;;;13.00;;
58260;SDS011;44058;52.898;6.502;2023-03-01T01:08:41;19.33;;;14.00;;
58260;SDS011;44058;52.898;6.502;2023-03-01T01:11:08;24.37;;;13.50;;
58260;SDS011;44058;52.898;6.502;2023-03-01T01:13:34;32.53;;;13.55;;
58260;SDS011;44058;52.898;6.502;2023-03-01T01:16:01;18.97;;;13.37;;
58260;SDS011;44058;52.898;6.502;2023-03-01T01:18:27;19.13;;;13.33;;
58260;SDS011;44058;52.898;6.502;2023-03-01T01:20:54;19.73;;;13.40;;
58260;SDS011;44058;52.898;6.502;2023-03-01T01:23:20;21.60;;;12.07;;
58260;SDS011;44058;52.898;6.502;2023-03-01T01:25:46;16.40;;;12.93;;
58260;SDS011;44058;52.898;6.502;2023-03-01T01:28:12;20.30;;;13.07;;
58260;SDS011;44058;52.898;6.502;2023-03-01T01:30:39;17.90;;;12.67;;
58260;SDS011;44058;52.898;6.502;2023-03-01T01:33:05;20.63;;;12.70;;
58260;SDS011;44058;52.898;6.502;2023-03-01T01:35:31;27.27;;;15.00;;
58260;SDS011;44058;52.898;6.502;2023-03-01T01:37:57;54.37;;;16.40;;
58260;SDS011;44058;52.898;6.502;2023-03-01T01:40:23;43.23;;;16.50;;
58260;SDS011;44058;52.898;6.502;2023-03-01T01:42:49;60.23;;;17.03;;
58260;SDS011;44058;52.898;6.502;2023-03-01T01:45:34;40.00;;;16.23;;
58260;SDS011;44058;52.898;6.502;2023-03-01T01:48:05;66.47;;;16.83;;
58260;SDS011;44058;52.898;6.502;2023-03-01T01:50:56;43.97;;;17.10;;
58260;SDS011;44058;52.898;6.502;2023-03-01T01:53:25;53.37;;;15.90;;
58260;SDS011;44058;52.898;6.502;2023-03-01T01:55:56;47.30;;;15.65;;
58260;SDS011;44058;52.898;6.502;2023-03-01T01:58:24;44.00;;;14.90;;
58260;SDS011;44058;52.898;6.502;2023-03-01T02:00:52;26.67;;;13.53;;
58260;SDS011;44058;52.898;6.502;2023-03-01T02:03:22;21.35;;;14.43;;
58260;SDS011;44058;52.898;6.502;2023-03-01T02:08:18;36.23;;;15.27;;
58260;SDS011;44058;52.898;6.502;2023-03-01T02:10:45;48.83;;;14.87;;
58260;SDS011;44058;52.898;6.502;2023-03-01T02:13:12;69.07;;;16.67;;
58260;SDS011;44058;52.898;6.502;2023-03-01T02:15:39;30.23;;;14.60;;
58260;SDS011;44058;52.898;6.502;2023-03-01T02:18:06;25.13;;;13.67;;
58260;SDS011;44058;52.898;6.502;2023-03-01T02:23:06;38.58;;;14.95;;
58260;SDS011;44058;52.898;6.502;2023-03-01T02:25:52;19.93;;;13.70;;
58260;SDS011;44058;52.898;6.502;2023-03-01T02:28:31;16.35;;;12.80;;
58260;SDS011;44058;52.898;6.502;2023-03-01T02:30:57;20.50;;;13.80;;
58260;SDS011;44058;52.898;6.502;2023-03-01T02:33:43;17.23;;;12.93;;
58260;SDS011;44058;52.898;6.502;2023-03-01T02:36:10;19.33;;;14.63;;
58260;SDS011;44058;52.898;6.502;2023-03-01T02:38:39;17.35;;;13.60;;
58260;SDS011;44058;52.898;6.502;2023-03-01T02:41:07;15.07;;;13.23;;
58260;SDS011;44058;52.898;6.502;2023-03-01T02:43:34;12.37;;;11.07;;
58260;SDS011;44058;52.898;6.502;2023-03-01T02:46:05;13.03;;;11.00;;
58260;SDS011;44058;52.898;6.502;2023-03-01T02:48:39;12.43;;;11.10;;
58260;SDS011;44058;52.898;6.502;2023-03-01T02:51:16;12.83;;;11.47;;
58260;SDS011;44058;52.898;6.502;2023-03-01T02:53:48;12.40;;;10.98;;
58260;SDS011;44058;52.898;6.502;2023-03-01T02:56:17;14.00;;;11.73;;
58260;SDS011;44058;52.898;6.502;2023-03-01T02:58:43;12.13;;;10.90;;
58260;SDS011;44058;52.898;6.502;2023-03-01T03:01:11;15.00;;;13.30;;
58260;SDS011;44058;52.898;6.502;2023-03-01T03:03:41;14.13;;;12.63;;
58260;SDS011;44058;52.898;6.502;2023-03-01T03:06:08;13.43;;;12.03;;
58260;SDS011;44058;52.898;6.502;2023-03-01T03:08:35;10.47;;;9.47;;
58260;SDS011;44058;52.898;6.502;2023-03-01T03:11:02;10.73;;;9.73;;
58260;SDS011;44058;52.898;6.502;2023-03-01T03:13:30;11.07;;;9.98;;
58260;SDS011;44058;52.898;6.502;2023-03-01T03:15:57;11.30;;;10.00;;
58260;SDS011;44058;52.898;6.502;2023-03-01T03:18:24;12.33;;;10.73;;
58260;SDS011;44058;52.898;6.502;2023-03-01T03:20:54;11.10;;;10.00;;
58260;SDS011;44058;52.898;6.502;2023-03-01T03:23:21;12.73;;;9.83;;
58260;SDS011;44058;52.898;6.502;2023-03-01T03:25:50;10.80;;;9.60;;
58260;SDS011;44058;52.898;6.502;2023-03-01T03:28:16;11.27;;;9.90;;
58260;SDS011;44058;52.898;6.502;2023-03-01T03:30:43;10.57;;;9.47;;
58260;SDS011;44058;52.898;6.502;2023-03-01T03:33:13;10.33;;;9.33;;
58260;SDS011;44058;52.898;6.502;2023-03-01T03:35:41;12.03;;;10.53;;
58260;SDS011;44058;52.898;6.502;2023-03-01T03:38:09;11.13;;;9.37;;
58260;SDS011;44058;52.898;6.502;2023-03-01T03:40:42;11.30;;;10.10;;
58260;SDS011;44058;52.898;6.502;2023-03-01T03:43:13;10.73;;;9.67;;
58260;SDS011;44058;52.898;6.502;2023-03-01T03:45:39;10.57;;;9.47;;
58260;SDS011;44058;52.898;6.502;2023-03-01T03:48:06;12.10;;;10.37;;
58260;SDS011;44058;52.898;6.502;2023-03-01T03:50:33;13.10;;;10.73;;
58260;SDS011;44058;52.898;6.502;2023-03-01T03:53:03;12.07;;;10.50;;
58260;SDS011;44058;52.898;6.502;2023-03-01T03:55:30;10.97;;;9.83;;
58260;SDS011;44058;52.898;6.502;2023-03-01T03:58:00;10.70;;;9.60;;
58260;SDS011;44058;52.898;6.502;2023-03-01T04:03:01;10.23;;;9.20;;
58260;SDS011;44058;52.898;6.502;2023-03-01T04:05:28;9.93;;;8.97;;
58260;SDS011;44058;52.898;6.502;2023-03-01T04:07:56;10.83;;;9.73;;
58260;SDS011;44058;52.898;6.502;2023-03-01T04:10:29;11.47;;;9.50;;
58260;SDS011;44058;52.898;6.502;2023-03-01T04:13:01;10.63;;;9.53;;
58260;SDS011;44058;52.898;6.502;2023-03-01T04:15:27;10.43;;;9.43;;
58260;SDS011;44058;52.898;6.502;2023-03-01T04:17:56;10.75;;;9.75;;
58260;SDS011;44058;52.898;6.502;2023-03-01T04:20:25;9.73;;;8.73;;
58260;SDS011;44058;52.898;6.502;2023-03-01T04:25:24;10.03;;;9.03;;
58260;SDS011;44058;52.898;6.502;2023-03-01T04:27:51;10.07;;;9.07;;
58260;SDS011;44058;52.898;6.502;2023-03-01T04:30:18;10.73;;;9.63;;
58260;SDS011;44058;52.898;6.502;2023-03-01T04:32:47;11.03;;;9.93;;
58260;SDS011;44058;52.898;6.502;2023-03-01T04:35:15;11.60;;;10.33;;
58260;SDS011;44058;52.898;6.502;2023-03-01T04:37:44;11.23;;;10.18;;
58260;SDS011;44058;52.898;6.502;2023-03-01T04:40:10;10.20;;;9.20;;
58260;SDS011;44058;52.898;6.502;2023-03-01T04:42:42;9.67;;;8.67;;
58260;SDS011;44058;52.898;6.502;2023-03-01T04:45:08;10.20;;;9.20;;
58260;SDS011;44058;52.898;6.502;2023-03-01T04:47:44;10.13;;;9.13;;
58260;SDS011;44058;52.898;6.502;2023-03-01T04:50:12;10.27;;;9.23;;
58260;SDS011;44058;52.898;6.502;2023-03-01T04:52:40;10.82;;;9.75;;
58260;SDS011;44058;52.898;6.502;2023-03-01T04:55:07;11.10;;;10.00;;
58260;SDS011;44058;52.898;6.502;2023-03-01T04:57:33;10.57;;;9.47;;
58260;SDS011;44058;52.898;6.502;2023-03-01T05:00:00;10.67;;;9.57;;
58260;SDS011;44058;52.898;6.502;2023-03-01T05:02:26;10.90;;;9.80;;
58260;SDS011;44058;52.898;6.502;2023-03-01T05:04:52;11.00;;;9.90;;
58260;SDS011;44058;52.898;6.502;2023-03-01T05:07:22;10.40;;;9.40;;
58260;SDS011;44058;52.898;6.502;2023-03-01T05:09:50;10.07;;;9.07;;
58260;SDS011;44058;52.898;6.502;2023-03-01T05:12:17;10.20;;;9.17;;
58260;SDS011;44058;52.898;6.502;2023-03-01T05:14:43;9.97;;;8.97;;
58260;SDS011;44058;52.898;6.502;2023-03-01T05:17:09;10.00;;;9.07;;
58260;SDS011;44058;52.898;6.502;2023-03-01T05:19:35;10.03;;;9.03;;
58260;SDS011;44058;52.898;6.502;2023-03-01T05:22:01;9.87;;;8.87;;
58260;SDS011;44058;52.898;6.502;2023-03-01T05:24:32;10.40;;;9.40;;
58260;SDS011;44058;52.898;6.502;2023-03-01T05:27:00;8.93;;;8.13;;
58260;SDS011;44058;52.898;6.502;2023-03-01T05:29:27;9.83;;;8.83;;
58260;SDS011;44058;52.898;6.502;2023-03-01T05:31:54;10.07;;;9.07;;
58260;SDS011;44058;52.898;6.502;2023-03-01T05:34:24;9.83;;;8.83;;
58260;SDS011;44058;52.898;6.502;2023-03-01T05:36:51;9.30;;;8.40;;
58260;SDS011;44058;52.898;6.502;2023-03-01T05:39:21;10.10;;;9.10;;
58260;SDS011;44058;52.898;6.502;2023-03-01T05:41:48;9.90;;;8.90;;
58260;SDS011;44058;52.898;6.502;2023-03-01T05:44:14;9.80;;;8.90;;
58260;SDS011;44058;52.898;6.502;2023-03-01T05:46:41;12.13;;;10.27;;
58260;SDS011;44058;52.898;6.502;2023-03-01T05:49:07;11.00;;;9.90;;
58260;SDS011;44058;52.898;6.502;2023-03-01T05:51:35;10.97;;;9.87;;
58260;SDS011;44058;52.898;6.502;2023-03-01T05:54:01;11.20;;;10.10;;
58260;SDS011;44058;52.898;6.502;2023-03-01T05:56:32;11.33;;;10.13;;
58260;SDS011;44058;52.898;6.502;2023-03-01T05:58:59;11.60;;;10.40;;
58260;SDS011;44058;52.898;6.502;2023-03-01T06:01:26;12.10;;;10.83;;
58260;SDS011;44058;52.898;6.502;2023-03-01T06:04:06;11.23;;;10.10;;
58260;SDS011;44058;52.898;6.502;2023-03-01T06:06:36;11.43;;;10.07;;
58260;SDS011;44058;52.898;6.502;2023-03-01T06:09:03;11.67;;;10.47;;
58260;SDS011;44058;52.898;6.502;2023-03-01T06:11:30;11.60;;;9.87;;
58260;SDS011;44058;52.898;6.502;2023-03-01T06:13:56;11.23;;;10.03;;
58260;SDS011;44058;52.898;6.502;2023-03-01T06:16:22;12.07;;;10.53;;
58260;SDS011;44058;52.898;6.502;2023-03-01T06:18:49;11.10;;;9.90;;
58260;SDS011;44058;52.898;6.502;2023-03-01T06:21:15;11.43;;;10.23;;
58260;SDS011;44058;52.898;6.502;2023-03-01T06:23:41;12.60;;;10.77;;
58260;SDS011;44058;52.898;6.502;2023-03-01T06:26:08;11.63;;;10.43;;
58260;SDS011;44058;52.898;6.502;2023-03-01T06:28:35;12.20;;;10.67;;
58260;SDS011;44058;52.898;6.502;2023-03-01T06:31:08;13.63;;;11.30;;
58260;SDS011;44058;52.898;6.502;2023-03-01T06:33:35;13.73;;;11.40;;
58260;SDS011;44058;52.898;6.502;2023-03-01T06:36:02;13.20;;;10.80;;
58260;SDS011;44058;52.898;6.502;2023-03-01T06:38:28;14.77;;;11.07;;
58260;SDS011;44058;52.898;6.502;2023-03-01T06:40:54;12.37;;;10.43;;
58260;SDS011;44058;52.898;6.502;2023-03-01T06:43:24;12.43;;;10.13;;
58260;SDS011;44058;52.898;6.502;2023-03-01T06:45:50;12.73;;;10.87;;
58260;SDS011;44058;52.898;6.502;2023-03-01T06:48:16;11.87;;;10.67;;
58260;SDS011;44058;52.898;6.502;2023-03-01T06:50:42;12.03;;;10.77;;
58260;SDS011;44058;52.898;6.502;2023-03-01T06:53:09;12.23;;;10.47;;
58260;SDS011;44058;52.898;6.502;2023-03-01T06:55:36;14.83;;;10.67;;
58260;SDS011;44058;52.898;6.502;2023-03-01T06:58:02;11.73;;;10.50;;
58260;SDS011;44058;52.898;6.502;2023-03-01T07:00:28;13.13;;;10.60;;
58260;SDS011;44058;52.898;6.502;2023-03-01T07:03:15;12.70;;;10.50;;
58260;SDS011;44058;52.898;6.502;2023-03-01T07:05:41;11.33;;;9.90;;
58260;SDS011;44058;52.898;6.502;2023-03-01T07:08:07;14.07;;;11.23;;
58260;SDS011;44058;52.898;6.502;2023-03-01T07:10:33;11.87;;;10.20;;
58260;SDS011;44058;52.898;6.502;2023-03-01T07:13:00;12.23;;;10.70;;
58260;SDS011;44058;52.898;6.502;2023-03-01T07:15:28;11.43;;;9.83;;
58260;SDS011;44058;52.898;6.502;2023-03-01T07:17:55;11.63;;;10.43;;
58260;SDS011;44058;52.898;6.502;2023-03-01T07:20:22;11.80;;;10.60;;
58260;SDS011;44058;52.898;6.502;2023-03-01T07:22:53;11.13;;;9.93;;
58260;SDS011;44058;52.898;6.502;2023-03-01T07:25:19;11.67;;;10.07;;
58260;SDS011;44058;52.898;6.502;2023-03-01T07:27:49;11.30;;;10.00;;
58260;SDS011;44058;52.898;6.502;2023-03-01T07:30:16;11.33;;;10.13;;
58260;SDS011;44058;52.898;6.502;2023-03-01T07:32:42;10.90;;;9.43;;
58260;SDS011;44058;52.898;6.502;2023-03-01T07:35:08;13.47;;;10.20;;
58260;SDS011;44058;52.898;6.502;2023-03-01T07:37:34;11.73;;;9.27;;
58260;SDS011;44058;52.898;6.502;2023-03-01T07:40:01;12.13;;;10.70;;
58260;SDS011;44058;52.898;6.502;2023-03-01T07:42:27;13.30;;;10.70;;
58260;SDS011;44058;52.898;6.502;2023-03-01T07:44:53;14.70;;;11.63;;
58260;SDS011;44058;52.898;6.502;2023-03-01T07:47:20;15.07;;;12.37;;
58260;SDS011;44058;52.898;6.502;2023-03-01T07:49:53;16.00;;;12.40;;
58260;SDS011;44058;52.898;6.502;2023-03-01T07:52:19;16.53;;;12.83;;
58260;SDS011;44058;52.898;6.502;2023-03-01T07:54:45;19.93;;;13.70;;
58260;SDS011;44058;52.898;6.502;2023-03-01T07:57:11;19.83;;;15.77;;
58260;SDS011;44058;52.898;6.502;2023-03-01T07:59:38;18.73;;;14.90;;
58260;SDS011;44058;52.898;6.502;2023-03-01T08:02:04;17.77;;;14.07;;
58260;SDS011;44058;52.898;6.502;2023-03-01T08:04:30;17.17;;;13.10;;
58260;SDS011;44058;52.898;6.502;2023-03-01T08:06:57;18.90;;;13.23;;
58260;SDS011;44058;52.898;6.502;2023-03-01T08:09:24;18.90;;;14.13;;
58260;SDS011;44058;52.898;6.502;2023-03-01T08:11:50;18.13;;;14.20;;
58260;SDS011;44058;52.898;6.502;2023-03-01T08:14:17;22.07;;;15.53;;
58260;SDS011;44058;52.898;6.502;2023-03-01T08:16:43;19.03;;;14.53;;
58260;SDS011;44058;52.898;6.502;2023-03-01T08:19:10;22.87;;;15.93;;
58260;SDS011;44058;52.898;6.502;2023-03-01T08:21:37;24.53;;;16.60;;
58260;SDS011;44058;52.898;6.502;2023-03-01T08:24:04;24.30;;;17.03;;
58260;SDS011;44058;52.898;6.502;2023-03-01T08:26:35;31.57;;;16.93;;
58260;SDS011;44058;52.898;6.502;2023-03-01T08:29:01;26.20;;;17.47;;
58260;SDS011;44058;52.898;6.502;2023-03-01T08:31:29;24.50;;;17.87;;
58260;SDS011;44058;52.898;6.502;2023-03-01T08:33:56;27.27;;;18.90;;
58260;SDS011;44058;52.898;6.502;2023-03-01T08:36:23;26.83;;;18.87;;
58260;SDS011;44058;52.898;6.502;2023-03-01T08:38:50;34.13;;;20.37;;
58260;SDS011;44058;52.898;6.502;2023-03-01T08:41:16;32.17;;;21.07;;
58260;SDS011;44058;52.898;6.502;2023-03-01T08:43:43;31.20;;;21.83;;
58260;SDS011;44058;52.898;6.502;2023-03-01T08:46:09;36.90;;;22.87;;
58260;SDS011;44058;52.898;6.502;2023-03-01T08:48:36;33.30;;;21.40;;
58260;SDS011;44058;52.898;6.502;2023-03-01T08:51:09;38.33;;;23.27;;
58260;SDS011;44058;52.898;6.502;2023-03-01T08:53:35;36.00;;;22.97;;
58260;SDS011;44058;52.898;6.502;2023-03-01T08:56:02;35.97;;;23.35;;
58260;SDS011;44058;52.898;6.502;2023-03-01T08:58:28;34.90;;;22.73;;
58260;SDS011;44058;52.898;6.502;2023-03-01T09:00:54;34.85;;;22.48;;
58260;SDS011;44058;52.898;6.502;2023-03-01T09:03:24;31.83;;;22.65;;
58260;SDS011;44058;52.898;6.502;2023-03-01T09:05:51;33.47;;;22.77;;
58260;SDS011;44058;52.898;6.502;2023-03-01T09:08:19;33.63;;;21.02;;
58260;SDS011;44058;52.898;6.502;2023-03-01T09:10:45;33.10;;;22.40;;
58260;SDS011;44058;52.898;6.502;2023-03-01T09:13:11;33.08;;;21.80;;
58260;SDS011;44058;52.898;6.502;2023-03-01T09:15:39;33.22;;;22.52;;
58260;SDS011;44058;52.898;6.502;2023-03-01T09:18:05;34.72;;;22.95;;
58260;SDS011;44058;52.898;6.502;2023-03-01T09:20:31;36.63;;;22.83;;
58260;SDS011;44058;52.898;6.502;2023-03-01T09:22:58;32.40;;;22.20;;
58260;SDS011;44058;52.898;6.502;2023-03-01T09:25:25;38.33;;;23.27;;
58260;SDS011;44058;52.898;6.502;2023-03-01T09:27:51;35.35;;;22.95;;
58260;SDS011;44058;52.898;6.502;2023-03-01T09:30:17;32.08;;;21.88;;
58260;SDS011;44058;52.898;6.502;2023-03-01T09:32:46;33.58;;;21.70;;
58260;SDS011;44058;52.898;6.502;2023-03-01T09:37:39;32.80;;;21.55;;
58260;SDS011;44058;52.898;6.502;2023-03-01T09:40:14;28.05;;;21.23;;
58260;SDS011;44058;52.898;6.502;2023-03-01T09:42:45;29.67;;;21.25;;
58260;SDS011;44058;52.898;6.502;2023-03-01T09:45:16;29.15;;;20.90;;
58260;SDS011;44058;52.898;6.502;2023-03-01T09:47:47;27.88;;;19.17;;
58260;SDS011;44058;52.898;6.502;2023-03-01T09:50:18;30.90;;;18.67;;
58260;SDS011;44058;52.898;6.502;2023-03-01T09:55:25;28.08;;;20.00;;
58260;SDS011;44058;52.898;6.502;2023-03-01T09:57:55;27.15;;;17.25;;
58260;SDS011;44058;52.898;6.502;2023-03-01T10:03:12;25.30;;;18.35;;
58260;SDS011;44058;52.898;6.502;2023-03-01T10:06:02;22.63;;;17.35;;
58260;SDS011;44058;52.898;6.502;2023-03-01T10:08:34;21.77;;;16.98;;
58260;SDS011;44058;52.898;6.502;2023-03-01T10:11:05;22.40;;;16.20;;
58260;SDS011;44058;52.898;6.502;2023-03-01T10:19:03;20.95;;;15.00;;
58260;SDS011;44058;52.898;6.502;2023-03-01T10:21:31;18.63;;;13.27;;
58260;SDS011;44058;52.898;6.502;2023-03-01T10:24:08;18.80;;;14.18;;
58260;SDS011;44058;52.898;6.502;2023-03-01T10:29:17;18.65;;;13.02;;
58260;SDS011;44058;52.898;6.502;2023-03-01T10:31:48;20.67;;;12.80;;
58260;SDS011;44058;52.898;6.502;2023-03-01T10:34:17;13.82;;;9.40;;
58260;SDS011;44058;52.898;6.502;2023-03-01T10:36:44;11.43;;;8.90;;
58260;SDS011;44058;52.898;6.502;2023-03-01T10:39:14;9.55;;;7.63;;
58260;SDS011;44058;52.898;6.502;2023-03-01T10:41:51;9.60;;;7.57;;
58260;SDS011;44058;52.898;6.502;2023-03-01T10:47:02;11.85;;;7.85;;
58260;SDS011;44058;52.898;6.502;2023-03-01T10:49:29;8.93;;;7.43;;
58260;SDS011;44058;52.898;6.502;2023-03-01T10:51:55;13.15;;;8.32;;
58260;SDS011;44058;52.898;6.502;2023-03-01T10:54:22;12.23;;;8.68;;
58260;SDS011;44058;52.898;6.502;2023-03-01T10:56:51;11.35;;;8.18;;
58260;SDS011;44058;52.898;6.502;2023-03-01T10:59:26;12.40;;;9.10;;
58260;SDS011;44058;52.898;6.502;2023-03-01T11:02:03;12.23;;;9.25;;
58260;SDS011;44058;52.898;6.502;2023-03-01T11:04:30;13.13;;;10.10;;
58260;SDS011;44058;52.898;6.502;2023-03-01T11:07:00;13.13;;;9.75;;
58260;SDS011;44058;52.898;6.502;2023-03-01T11:09:26;11.95;;;8.93;;
58260;SDS011;44058;52.898;6.502;2023-03-01T11:12:03;12.15;;;9.35;;
58260;SDS011;44058;52.898;6.502;2023-03-01T11:14:35;13.27;;;9.35;;
58260;SDS011;44058;52.898;6.502;2023-03-01T11:17:15;12.68;;;10.07;;
58260;SDS011;44058;52.898;6.502;2023-03-01T11:19:42;12.07;;;9.32;;
58260;SDS011;44058;52.898;6.502;2023-03-01T11:22:24;12.10;;;9.10;;
58260;SDS011;44058;52.898;6.502;2023-03-01T11:24:51;13.85;;;10.07;;
58260;SDS011;44058;52.898;6.502;2023-03-01T11:32:38;12.02;;;9.95;;
58260;SDS011;44058;52.898;6.502;2023-03-01T11:35:14;13.15;;;9.07;;
58260;SDS011;44058;52.898;6.502;2023-03-01T11:37:58;10.77;;;9.07;;
58260;SDS011;44058;52.898;6.502;2023-03-01T11:40:27;11.73;;;9.13;;
58260;SDS011;44058;52.898;6.502;2023-03-01T11:42:59;10.73;;;7.85;;
58260;SDS011;44058;52.898;6.502;2023-03-01T11:45:27;9.00;;;7.57;;
58260;SDS011;44058;52.898;6.502;2023-03-01T11:50:28;10.50;;;9.18;;
58260;SDS011;44058;52.898;6.502;2023-03-01T11:58:09;9.15;;;7.38;;
58260;SDS011;44058;52.898;6.502;2023-03-01T12:05:51;9.98;;;7.90;;
58260;SDS011;44058;52.898;6.502;2023-03-01T12:08:39;14.45;;;9.23;;
58260;SDS011;44058;52.898;6.502;2023-03-01T12:26:29;13.70;;;10.00;;
58260;SDS011;44058;52.898;6.502;2023-03-01T12:35:00;10.60;;;9.25;;
58260;SDS011;44058;52.898;6.502;2023-03-01T12:39:50;12.70;;;9.85;;
58260;SDS011;44058;52.898;6.502;2023-03-01T12:42:23;12.65;;;10.50;;
58260;SDS011;44058;52.898;6.502;2023-03-01T12:44:58;12.77;;;9.93;;
58260;SDS011;44058;52.898;6.502;2023-03-01T12:48:12;12.63;;;9.30;;
58260;SDS011;44058;52.898;6.502;2023-03-01T12:50:24;11.43;;;9.10;;
58260;SDS011;44058;52.898;6.502;2023-03-01T12:52:57;13.48;;;10.27;;
58260;SDS011;44058;52.898;6.502;2023-03-01T12:55:34;13.63;;;10.07;;
58260;SDS011;44058;52.898;6.502;2023-03-01T12:58:04;10.88;;;9.40;;
58260;SDS011;44058;52.898;6.502;2023-03-01T13:03:21;13.38;;;10.07;;
58260;SDS011;44058;52.898;6.502;2023-03-01T13:06:02;12.35;;;10.30;;
58260;SDS011;44058;52.898;6.502;2023-03-01T13:08:32;13.63;;;11.00;;
58260;SDS011;44058;52.898;6.502;2023-03-01T13:11:00;13.43;;;10.15;;
58260;SDS011;44058;52.898;6.502;2023-03-01T13:13:27;11.63;;;10.43;;
58260;SDS011;44058;52.898;6.502;2023-03-01T13:15:54;13.25;;;11.80;;
58260;SDS011;44058;52.898;6.502;2023-03-01T13:20:54;13.57;;;11.13;;
58260;SDS011;44058;52.898;6.502;2023-03-01T13:26:05;14.55;;;10.98;;
58260;SDS011;44058;52.898;6.502;2023-03-01T13:36:09;20.17;;;12.20;;
58260;SDS011;44058;52.898;6.502;2023-03-01T13:41:06;16.23;;;10.43;;
58260;SDS011;44058;52.898;6.502;2023-03-01T13:43:41;14.70;;;11.90;;
58260;SDS011;44058;52.898;6.502;2023-03-01T13:46:19;14.18;;;11.73;;
58260;SDS011;44058;52.898;6.502;2023-03-01T13:48:47;12.77;;;11.43;;
58260;SDS011;44058;52.898;6.502;2023-03-01T13:51:15;13.32;;;10.82;;
58260;SDS011;44058;52.898;6.502;2023-03-01T13:53:45;16.15;;;12.98;;
58260;SDS011;44058;52.898;6.502;2023-03-01T13:56:13;16.10;;;12.80;;
58260;SDS011;44058;52.898;6.502;2023-03-01T14:01:20;15.02;;;11.90;;
58260;SDS011;44058;52.898;6.502;2023-03-01T14:03:47;13.73;;;11.02;;
58260;SDS011;44058;52.898;6.502;2023-03-01T14:06:23;14.30;;;11.27;;
58260;SDS011;44058;52.898;6.502;2023-03-01T14:08:50;14.57;;;10.73;;
58260;SDS011;44058;52.898;6.502;2023-03-01T14:16:25;9.93;;;7.90;;
58260;SDS011;44058;52.898;6.502;2023-03-01T14:19:12;9.45;;;7.50;;
58260;SDS011;44058;52.898;6.502;2023-03-01T14:21:42;9.60;;;7.53;;
58260;SDS011;44058;52.898;6.502;2023-03-01T14:24:22;9.02;;;6.50;;
58260;SDS011;44058;52.898;6.502;2023-03-01T14:26:49;9.18;;;7.25;;
58260;SDS011;44058;52.898;6.502;2023-03-01T14:29:26;8.23;;;7.30;;
58260;SDS011;44058;52.898;6.502;2023-03-01T14:31:52;8.80;;;7.43;;
58260;SDS011;44058;52.898;6.502;2023-03-01T14:34:24;9.45;;;7.90;;
58260;SDS011;44058;52.898;6.502;2023-03-01T14:36:50;9.77;;;7.53;;
58260;SDS011;44058;52.898;6.502;2023-03-01T14:39:17;11.80;;;7.70;;
58260;SDS011;44058;52.898;6.502;2023-03-01T14:41:47;9.13;;;7.53;;
58260;SDS011;44058;52.898;6.502;2023-03-01T14:44:20;9.93;;;7.78;;
58260;SDS011;44058;52.898;6.502;2023-03-01T14:46:54;8.73;;;7.25;;
58260;SDS011;44058;52.898;6.502;2023-03-01T14:49:23;9.02;;;7.88;;
58260;SDS011;44058;52.898;6.502;2023-03-01T14:51:53;9.10;;;7.18;;
58260;SDS011;44058;52.898;6.502;2023-03-01T14:56:53;8.98;;;7.45;;
58260;SDS011;44058;52.898;6.502;2023-03-01T14:59:23;8.93;;;7.10;;
58260;SDS011;44058;52.898;6.502;2023-03-01T15:01:50;9.65;;;8.07;;
58260;SDS011;44058;52.898;6.502;2023-03-01T15:04:18;9.90;;;7.83;;
58260;SDS011;44058;52.898;6.502;2023-03-01T15:06:44;9.10;;;7.50;;
58260;SDS011;44058;52.898;6.502;2023-03-01T15:09:13;8.60;;;7.70;;
58260;SDS011;44058;52.898;6.502;2023-03-01T15:11:41;9.60;;;7.85;;
58260;SDS011;44058;52.898;6.502;2023-03-01T15:14:28;9.45;;;8.50;;
58260;SDS011;44058;52.898;6.502;2023-03-01T15:16:55;11.05;;;8.70;;
58260;SDS011;44058;52.898;6.502;2023-03-01T15:19:21;10.10;;;8.30;;
58260;SDS011;44058;52.898;6.502;2023-03-01T15:21:50;10.93;;;8.45;;
58260;SDS011;44058;52.898;6.502;2023-03-01T15:24:18;9.02;;;8.13;;
58260;SDS011;44058;52.898;6.502;2023-03-01T15:26:52;10.50;;;7.95;;
58260;SDS011;44058;52.898;6.502;2023-03-01T15:29:22;10.00;;;8.50;;
58260;SDS011;44058;52.898;6.502;2023-03-01T15:31:54;8.20;;;7.13;;
58260;SDS011;44058;52.898;6.502;2023-03-01T15:36:50;11.05;;;9.52;;
58260;SDS011;44058;52.898;6.502;2023-03-01T15:39:36;10.98;;;9.80;;
58260;SDS011;44058;52.898;6.502;2023-03-01T15:42:13;19.08;;;16.02;;
58260;SDS011;44058;52.898;6.502;2023-03-01T15:44:41;13.45;;;11.55;;
58260;SDS011;44058;52.898;6.502;2023-03-01T15:47:25;22.77;;;20.50;;
58260;SDS011;44058;52.898;6.502;2023-03-01T15:49:52;10.68;;;9.43;;
58260;SDS011;44058;52.898;6.502;2023-03-01T15:54:55;11.45;;;10.35;;
58260;SDS011;44058;52.898;6.502;2023-03-01T15:57:21;17.35;;;15.63;;
58260;SDS011;44058;52.898;6.502;2023-03-01T15:59:47;13.73;;;12.30;;
58260;SDS011;44058;52.898;6.502;2023-03-01T16:02:14;12.13;;;10.20;;
58260;SDS011;44058;52.898;6.502;2023-03-01T16:04:40;11.88;;;10.63;;
58260;SDS011;44058;52.898;6.502;2023-03-01T16:07:08;13.18;;;10.63;;
58260;SDS011;44058;52.898;6.502;2023-03-01T16:09:35;14.38;;;12.38;;
58260;SDS011;44058;52.898;6.502;2023-03-01T16:12:01;11.45;;;10.25;;
58260;SDS011;44058;52.898;6.502;2023-03-01T16:14:27;13.90;;;12.43;;
58260;SDS011;44058;52.898;6.502;2023-03-01T16:16:53;12.25;;;10.35;;
58260;SDS011;44058;52.898;6.502;2023-03-01T16:19:19;12.02;;;10.80;;
58260;SDS011;44058;52.898;6.502;2023-03-01T16:21:46;22.92;;;20.58;;
58260;SDS011;44058;52.898;6.502;2023-03-01T16:24:14;16.60;;;14.95;;